Time;durP1;ratioP1;P1;durP2;ratioP2;P2;SDS_P1;SDS_P2;PMS_P1;PMS_P2;Temp;Humidity;BMP_temperature;BMP_pressure;BME280_temperature;BME280_humidity;BME280_pressure;Samples;Min_cycle;Max_cycle;Signal;HPM_P1;HPM_P2
2022/11/04 00:00:24;;;;;;;2.33;1.10;;;14.50;99.90;;;;;;5010198;28;20801;-74
2022/11/04 00:02:52;;;;;;;1.50;1.10;;;14.50;99.90;;;;;;5011530;28;20455;-74
2022/11/04 00:05:23;;;;;;;1.03;0.93;;;14.50;99.90;;;;;;5009920;28;20914;-74
2022/11/04 00:12:23;;;;;;;1.27;0.90;;;14.50;99.90;;;;;;4997626;28;20461;-74
2022/11/04 00:13:29;;;;;;;1.87;1.10;;;14.50;99.90;;;;;;5000352;28;20443;-74
2022/11/04 00:18:55;;;;;;;1.27;1.07;;;14.50;99.90;;;;;;4977878;28;21286;-74
2022/11/04 00:29:47;;;;;;;0.90;0.73;;;14.40;99.90;;;;;;5013313;28;20875;-74
2022/11/04 00:35:02;;;;;;;1.10;0.90;;;14.40;99.90;;;;;;4990480;28;20921;-74
2022/11/04 00:37:30;;;;;;;2.33;1.20;;;14.40;99.90;;;;;;4986835;28;20475;-74
2022/11/04 00:39:56;;;;;;;1.57;1.10;;;14.40;99.90;;;;;;4977098;28;20488;-74
2022/11/04 00:42:24;;;;;;;1.90;1.23;;;14.40;99.90;;;;;;4985634;28;20530;-74
2022/11/04 00:44:55;;;;;;;2.50;1.40;;;14.40;99.90;;;;;;4968516;28;20509;-74
2022/11/04 00:47:28;;;;;;;3.40;1.30;;;14.40;99.90;;;;;;4978985;28;20436;-74
2022/11/04 00:49:54;;;;;;;1.17;1.00;;;14.40;99.90;;;;;;5007103;28;20456;-74
2022/11/04 00:52:22;;;;;;;1.03;0.90;;;14.40;99.90;;;;;;4987659;28;20428;-74
2022/11/04 00:54:53;;;;;;;1.43;1.17;;;14.40;99.90;;;;;;4988683;28;20464;-74
2022/11/04 00:57:21;;;;;;;1.20;1.00;;;14.40;99.90;;;;;;4972626;28;20460;-74
2022/11/04 00:59:47;;;;;;;1.30;1.10;;;14.40;99.90;;;;;;4988970;28;20877;-74
2022/11/04 01:02:16;;;;;;;1.73;1.47;;;14.40;99.90;;;;;;4995832;28;20906;-74
2022/11/04 01:04:42;;;;;;;1.63;1.53;;;14.30;99.90;;;;;;4990663;28;20810;-74
2022/11/04 01:07:08;;;;;;;1.23;0.87;;;14.40;99.90;;;;;;5007300;28;20446;-74
2022/11/04 01:09:38;;;;;;;1.20;0.97;;;14.40;99.90;;;;;;4994700;28;20498;-74
2022/11/04 01:12:07;;;;;;;2.00;1.03;;;14.30;99.90;;;;;;5013620;28;20495;-74
2022/11/04 01:14:37;;;;;;;2.30;1.00;;;14.40;99.90;;;;;;4962510;28;20987;-74
2022/11/04 01:17:03;;;;;;;1.23;1.00;;;14.30;99.90;;;;;;5000289;28;20903;-74
2022/11/04 01:19:40;;;;;;;2.30;1.40;;;14.30;99.90;;;;;;4994993;28;20481;-74
2022/11/04 01:22:09;;;;;;;1.73;1.10;;;14.30;99.90;;;;;;4994446;28;20423;-74
2022/11/04 01:24:39;;;;;;;1.40;1.00;;;14.30;99.90;;;;;;4981036;28;20844;-74
2022/11/04 01:27:05;;;;;;;1.57;0.93;;;14.30;99.90;;;;;;4979911;28;20442;-74
2022/11/04 01:29:31;;;;;;;1.87;1.30;;;14.30;99.90;;;;;;5012559;28;20458;-74
2022/11/04 01:32:00;;;;;;;1.63;1.20;;;14.30;99.90;;;;;;4995523;28;20397;-74
2022/11/04 01:34:26;;;;;;;1.67;1.00;;;14.30;99.90;;;;;;4964916;28;20425;-74
2022/11/04 01:36:54;;;;;;;1.00;0.90;;;14.30;99.90;;;;;;5007635;28;20437;-74
2022/11/04 01:39:20;;;;;;;1.60;1.40;;;14.30;99.90;;;;;;4993485;28;20830;-74
2022/11/04 01:41:48;;;;;;;3.63;1.67;;;14.30;99.90;;;;;;4980570;28;20474;-74
2022/11/04 01:44:50;;;;;;;2.10;1.30;;;14.30;99.90;;;;;;4980638;28;20804;-74
2022/11/04 01:47:39;;;;;;;1.47;1.10;;;14.30;99.90;;;;;;5008982;28;20491;-74
2022/11/04 01:50:07;;;;;;;2.27;1.40;;;14.30;99.90;;;;;;4981448;28;20532;-74
2022/11/04 01:52:52;;;;;;;2.00;1.47;;;14.30;99.90;;;;;;4961971;28;20455;-74
2022/11/04 01:55:26;;;;;;;2.10;1.40;;;14.30;99.90;;;;;;4995499;28;20418;-74
2022/11/04 01:57:57;;;;;;;1.33;1.23;;;14.30;99.90;;;;;;5008430;28;20459;-74
2022/11/04 02:00:28;;;;;;;1.60;1.30;;;14.30;99.90;;;;;;4992664;28;20926;-74
2022/11/04 02:03:03;;;;;;;2.10;1.27;;;14.30;99.90;;;;;;5009085;28;20875;-74
2022/11/04 02:05:37;;;;;;;3.00;1.30;;;14.20;99.90;;;;;;4984592;28;20453;-75
2022/11/04 02:08:09;;;;;;;3.83;1.60;;;14.20;99.90;;;;;;4989213;28;20452;-74
2022/11/04 02:10:36;;;;;;;1.37;1.23;;;14.20;99.90;;;;;;5010876;28;20418;-74
2022/11/04 02:13:04;;;;;;;1.50;1.40;;;14.20;99.90;;;;;;4993689;28;20443;-74
2022/11/04 02:15:44;;;;;;;2.07;0.97;;;14.20;99.90;;;;;;4995051;28;20433;-74
2022/11/04 02:18:23;;;;;;;1.70;1.27;;;14.20;99.90;;;;;;4987982;28;20478;-74
2022/11/04 02:21:13;;;;;;;1.90;1.13;;;14.20;99.90;;;;;;4988666;28;20526;-74
2022/11/04 02:23:59;;;;;;;1.57;1.30;;;14.20;99.90;;;;;;4967777;28;20466;-74
2022/11/04 02:26:49;;;;;;;2.77;1.40;;;14.20;99.90;;;;;;4975413;28;20436;-74
2022/11/04 02:29:41;;;;;;;2.17;1.20;;;14.20;99.90;;;;;;5008022;28;20517;-74
2022/11/04 02:32:33;;;;;;;3.70;1.50;;;14.20;99.90;;;;;;4993645;28;20908;-74
2022/11/04 02:35:15;;;;;;;2.07;1.10;;;14.20;99.90;;;;;;4975829;28;20403;-74
2022/11/04 02:38:00;;;;;;;1.80;1.30;;;14.20;99.90;;;;;;4975672;28;20517;-74
2022/11/04 02:41:04;;;;;;;3.53;1.30;;;14.20;99.90;;;;;;4975198;28;20411;-74
2022/11/04 02:43:58;;;;;;;1.77;1.23;;;14.10;99.90;;;;;;5001128;28;20470;-74
2022/11/04 02:46:47;;;;;;;1.00;0.87;;;14.10;99.90;;;;;;4976484;28;20771;-74
2022/11/04 02:49:20;;;;;;;2.60;1.67;;;14.10;99.90;;;;;;4992476;28;20445;-74
2022/11/04 02:52:16;;;;;;;2.70;1.20;;;14.10;99.90;;;;;;4963335;28;20425;-74
2022/11/04 02:55:02;;;;;;;5.00;1.43;;;14.10;99.90;;;;;;4972461;28;20488;-74
2022/11/04 02:57:34;;;;;;;1.90;1.20;;;14.10;99.90;;;;;;4977474;28;20964;-74
2022/11/04 03:00:08;;;;;;;3.90;1.20;;;14.10;99.90;;;;;;4994464;28;20487;-74
2022/11/04 03:02:49;;;;;;;1.83;1.20;;;14.10;99.90;;;;;;4992729;28;21021;-74
2022/11/04 03:05:20;;;;;;;2.47;1.40;;;14.10;99.90;;;;;;4980067;28;20442;-74
2022/11/04 03:07:50;;;;;;;1.57;1.23;;;14.10;99.90;;;;;;4994486;28;20554;-74
2022/11/04 03:10:29;;;;;;;3.00;1.20;;;14.10;99.90;;;;;;4978385;28;20446;-74
2022/11/04 03:13:06;;;;;;;2.20;1.30;;;14.10;99.90;;;;;;5007922;28;20411;-74
2022/11/04 03:15:36;;;;;;;1.70;1.03;;;14.10;99.90;;;;;;4998592;28;20428;-74
2022/11/04 03:18:43;;;;;;;3.40;1.30;;;14.10;99.90;;;;;;4999640;28;20561;-74
2022/11/04 03:21:14;;;;;;;6.10;1.20;;;14.10;99.90;;;;;;4975168;28;20443;-74
2022/11/04 03:23:42;;;;;;;2.30;0.93;;;14.10;99.90;;;;;;5008157;28;20430;-74
2022/11/04 03:26:24;;;;;;;2.17;1.10;;;14.10;99.90;;;;;;4994304;28;20514;-74
2022/11/04 03:29:05;;;;;;;1.60;1.27;;;14.00;99.90;;;;;;4981913;28;20802;-74
2022/11/04 03:32:10;;;;;;;3.60;1.20;;;14.00;99.90;;;;;;4993731;28;20419;-74
2022/11/04 03:34:37;;;;;;;2.20;1.00;;;14.10;99.90;;;;;;4974901;28;20410;-74
2022/11/04 03:37:05;;;;;;;2.30;1.10;;;14.10;99.90;;;;;;4962093;28;20431;-74
2022/11/04 03:39:31;;;;;;;5.07;1.10;;;14.00;99.90;;;;;;4981866;28;20833;-74
2022/11/04 03:42:18;;;;;;;3.10;1.43;;;14.00;99.90;;;;;;4984386;28;20513;-74
2022/11/04 03:45:00;;;;;;;1.83;1.50;;;14.00;99.90;;;;;;5015564;28;20759;-74
2022/11/04 03:47:33;;;;;;;1.00;0.80;;;14.00;99.90;;;;;;4993573;28;20544;-74
2022/11/04 03:50:12;;;;;;;1.80;1.10;;;14.00;99.90;;;;;;4961749;28;21049;-74
2022/11/04 03:52:41;;;;;;;2.83;1.10;;;14.00;99.90;;;;;;4984851;28;20434;-74
2022/11/04 03:55:13;;;;;;;2.73;1.00;;;14.00;99.90;;;;;;4987130;28;20838;-74
2022/11/04 03:57:39;;;;;;;2.30;1.30;;;14.00;99.90;;;;;;4996417;28;20442;-74
2022/11/04 04:00:12;;;;;;;1.77;1.10;;;14.00;99.90;;;;;;4980441;28;20467;-74
2022/11/04 04:03:10;;;;;;;2.33;1.20;;;14.00;99.90;;;;;;4986568;28;20589;-74
2022/11/04 04:06:04;;;;;;;2.97;1.23;;;14.00;99.90;;;;;;4982240;28;20453;-74
2022/11/04 04:08:42;;;;;;;2.07;1.27;;;14.00;99.90;;;;;;4977716;28;20436;-74
2022/11/04 04:11:27;;;;;;;2.30;1.87;;;13.90;99.90;;;;;;4979119;28;20423;-74
2022/11/04 04:14:40;;;;;;;1.20;1.00;;;14.00;99.90;;;;;;4997188;28;20407;-74
2022/11/04 04:17:36;;;;;;;2.67;1.30;;;14.00;99.90;;;;;;4996155;28;20403;-74
2022/11/04 04:20:06;;;;;;;4.43;1.20;;;14.00;99.90;;;;;;4984846;28;20464;-74
2022/11/04 04:28:45;;;;;;;3.33;1.40;;;14.00;99.90;;;;;;4989880;28;20540;-74
2022/11/04 04:31:48;;;;;;;2.00;1.13;;;14.00;99.90;;;;;;5011256;28;20484;-74
2022/11/04 04:34:05;;;;;;;2.77;1.20;;;13.90;99.90;;;;;;5005675;28;20815;-74
2022/11/04 04:36:44;;;;;;;1.77;1.10;;;13.90;99.90;;;;;;4994978;28;20447;-74
2022/11/04 04:45:02;;;;;;;2.60;1.20;;;13.90;99.90;;;;;;4990460;28;20430;-74
2022/11/04 04:47:36;;;;;;;1.90;1.10;;;13.90;99.90;;;;;;4975868;28;20429;-74
2022/11/04 04:50:05;;;;;;;2.70;1.50;;;13.90;99.90;;;;;;4961267;28;20529;-74
2022/11/04 04:52:38;;;;;;;1.73;1.13;;;13.90;99.90;;;;;;4981607;28;20457;-74
2022/11/04 04:55:08;;;;;;;1.93;1.40;;;13.90;99.90;;;;;;4992737;28;20828;-74
2022/11/04 04:57:34;;;;;;;1.83;1.23;;;13.90;99.90;;;;;;4983385;28;20448;-74
2022/11/04 05:00:00;;;;;;;2.70;1.10;;;13.90;99.90;;;;;;4995643;28;20472;-74
2022/11/04 05:02:28;;;;;;;1.70;1.27;;;13.90;99.90;;;;;;4995125;28;20528;-74
2022/11/04 05:05:02;;;;;;;2.73;1.50;;;13.90;99.90;;;;;;4977042;28;20547;-74
2022/11/04 05:07:27;;;;;;;3.47;1.60;;;13.90;99.90;;;;;;4976150;28;20434;-74
2022/11/04 05:09:56;;;;;;;4.73;1.40;;;13.90;99.90;;;;;;4992680;28;20581;-74
2022/11/04 05:13:24;;;;;;;3.53;1.23;;;13.90;99.90;;;;;;4992697;28;20429;-74
2022/11/04 05:15:20;;;;;;;2.20;1.27;;;13.90;99.90;;;;;;4989090;28;20438;-74
2022/11/04 05:17:58;;;;;;;1.70;1.07;;;13.80;99.90;;;;;;4979602;28;20425;-74
2022/11/04 05:20:24;;;;;;;1.73;1.10;;;13.80;99.90;;;;;;4973197;28;20520;-74
2022/11/04 05:22:52;;;;;;;6.03;1.77;;;13.80;99.90;;;;;;4994646;28;20415;-74
2022/11/04 05:25:21;;;;;;;1.53;1.10;;;13.80;99.90;;;;;;4977031;28;20878;-76
2022/11/04 05:27:47;;;;;;;2.07;1.30;;;13.80;99.90;;;;;;4962434;28;20408;-74
2022/11/04 05:30:13;;;;;;;3.30;1.40;;;13.80;99.90;;;;;;4995283;28;20452;-76
2022/11/04 05:32:39;;;;;;;1.43;1.23;;;13.80;99.90;;;;;;4994415;28;20425;-76
2022/11/04 05:35:10;;;;;;;3.77;1.47;;;13.80;99.90;;;;;;4981091;28;20539;-75
2022/11/04 05:37:36;;;;;;;2.70;1.20;;;13.80;99.90;;;;;;4986222;28;20933;-76
2022/11/04 05:40:05;;;;;;;1.70;1.10;;;13.80;99.90;;;;;;4993256;28;20438;-74
2022/11/04 05:42:31;;;;;;;2.13;1.27;;;13.80;99.90;;;;;;4967504;28;20590;-76
2022/11/04 05:44:57;;;;;;;2.47;1.43;;;13.80;99.90;;;;;;4994040;28;20413;-75
2022/11/04 05:47:25;;;;;;;4.43;1.57;;;13.80;99.90;;;;;;4994835;28;20451;-75
2022/11/04 05:49:51;;;;;;;5.57;1.50;;;13.80;99.90;;;;;;5004908;28;20453;-76
2022/11/04 05:52:20;;;;;;;2.07;1.10;;;13.80;99.90;;;;;;4993544;28;20403;-76
2022/11/04 05:54:46;;;;;;;4.60;1.40;;;13.80;99.90;;;;;;4994597;28;20451;-76
2022/11/04 05:57:19;;;;;;;2.10;1.27;;;13.80;99.90;;;;;;4993403;28;20454;-76
2022/11/04 05:59:45;;;;;;;3.27;1.67;;;13.80;99.90;;;;;;4986951;28;20569;-76
2022/11/04 06:02:13;;;;;;;2.77;1.63;;;13.80;99.90;;;;;;5012725;28;20482;-76
2022/11/04 06:04:39;;;;;;;2.87;1.27;;;13.70;99.90;;;;;;5005231;28;20432;-76
2022/11/04 06:07:07;;;;;;;4.90;1.60;;;13.80;99.90;;;;;;4990864;28;20426;-77
2022/11/04 06:09:39;;;;;;;3.87;2.20;;;13.70;99.90;;;;;;4997558;28;20963;-77
2022/11/04 06:12:14;;;;;;;5.60;1.40;;;13.70;99.90;;;;;;4978585;28;20430;-76
2022/11/04 06:14:40;;;;;;;1.80;1.30;;;13.70;99.90;;;;;;4993349;28;20463;-77
2022/11/04 06:17:26;;;;;;;2.60;1.23;;;13.70;99.90;;;;;;4992607;28;20975;-76
2022/11/04 06:19:55;;;;;;;1.73;1.30;;;13.70;99.90;;;;;;5012578;28;20519;-77
2022/11/04 06:22:21;;;;;;;3.83;1.20;;;13.70;99.90;;;;;;4991989;28;20459;-76
2022/11/04 06:24:47;;;;;;;3.70;1.70;;;13.70;99.90;;;;;;5010971;28;20438;-75
2022/11/04 06:27:13;;;;;;;3.30;1.53;;;13.70;99.90;;;;;;5011813;28;20460;-79
2022/11/04 06:29:46;;;;;;;4.10;1.77;;;13.70;99.90;;;;;;4989259;28;20890;-77
2022/11/04 06:32:17;;;;;;;2.47;1.50;;;13.70;99.90;;;;;;4994272;28;20943;-76
2022/11/04 06:34:43;;;;;;;3.63;1.40;;;13.70;99.90;;;;;;4982250;28;20424;-77
2022/11/04 06:37:09;;;;;;;5.83;1.47;;;13.70;99.90;;;;;;4980252;28;20483;-78
2022/11/04 06:39:38;;;;;;;2.40;1.60;;;13.70;99.90;;;;;;4963750;28;20475;-75
2022/11/04 06:42:04;;;;;;;2.77;1.20;;;13.70;99.90;;;;;;4981314;28;20487;-75
2022/11/04 06:44:35;;;;;;;3.70;1.43;;;13.60;99.90;;;;;;4963725;28;20413;-75
2022/11/04 06:47:04;;;;;;;2.40;1.40;;;13.60;99.90;;;;;;4963454;28;20452;-75
2022/11/04 06:49:30;;;;;;;5.07;1.80;;;13.60;99.90;;;;;;4979173;28;20460;-75
2022/11/04 06:51:56;;;;;;;2.50;1.67;;;13.60;99.90;;;;;;5006709;28;20772;-75
2022/11/04 06:54:21;;;;;;;2.50;1.57;;;13.60;99.90;;;;;;4966813;28;20516;-75
2022/11/04 06:56:47;;;;;;;1.87;1.23;;;13.60;99.90;;;;;;5001053;28;20535;-75
2022/11/04 06:59:19;;;;;;;3.33;1.33;;;13.60;99.90;;;;;;4992739;28;20236;-75
2022/11/04 07:01:49;;;;;;;1.33;1.23;;;13.60;99.90;;;;;;4978539;28;20427;-75
2022/11/04 07:04:15;;;;;;;3.43;1.60;;;13.60;99.90;;;;;;4989772;28;20421;-75
2022/11/04 07:06:42;;;;;;;1.70;1.30;;;13.60;99.90;;;;;;4992977;28;20489;-75
2022/11/04 07:09:12;;;;;;;5.13;1.37;;;13.60;99.90;;;;;;4975312;28;20509;-77
2022/11/04 07:11:38;;;;;;;4.30;1.80;;;13.60;99.90;;;;;;4995310;28;20481;-78
2022/11/04 07:14:05;;;;;;;3.93;1.77;;;13.60;99.90;;;;;;4959989;28;20437;-77
2022/11/04 07:16:33;;;;;;;3.73;1.40;;;13.60;99.90;;;;;;4975833;28;20434;-76
2022/11/04 07:18:59;;;;;;;4.30;1.33;;;13.60;99.90;;;;;;5012546;28;20477;-77
2022/11/04 07:21:28;;;;;;;5.00;1.50;;;13.60;99.90;;;;;;4997085;28;20962;-78
2022/11/04 07:23:54;;;;;;;4.17;1.63;;;13.60;99.90;;;;;;4995665;28;20424;-76
2022/11/04 07:26:22;;;;;;;2.77;1.70;;;13.60;99.90;;;;;;4966210;28;20535;-77
2022/11/04 07:28:50;;;;;;;2.53;1.33;;;13.60;99.90;;;;;;4995783;28;20467;-76
2022/11/04 07:31:17;;;;;;;2.97;1.60;;;13.60;99.90;;;;;;5014698;28;20904;-75
2022/11/04 07:33:48;;;;;;;4.23;1.50;;;13.50;99.90;;;;;;4980011;28;20495;-77
2022/11/04 07:36:15;;;;;;;5.40;1.47;;;13.60;99.90;;;;;;5008199;28;20448;-77
2022/11/04 07:38:47;;;;;;;5.03;1.60;;;13.60;99.90;;;;;;4992848;28;20816;-77
2022/11/04 07:41:14;;;;;;;3.03;1.40;;;13.50;99.90;;;;;;4963617;28;20418;-77
2022/11/04 07:43:48;;;;;;;3.50;1.57;;;13.50;99.90;;;;;;4980461;28;20442;-78
2022/11/04 07:46:14;;;;;;;2.20;1.40;;;13.50;99.90;;;;;;4963707;28;20438;-77
2022/11/04 07:48:42;;;;;;;4.53;1.97;;;13.50;99.90;;;;;;4978466;28;20455;-76
2022/11/04 07:51:16;;;;;;;2.77;1.60;;;13.50;99.90;;;;;;4962321;28;20430;-75
2022/11/04 07:53:43;;;;;;;3.10;1.50;;;13.50;99.90;;;;;;4992793;28;20438;-76
2022/11/04 07:56:11;;;;;;;2.23;1.40;;;13.50;99.90;;;;;;4988960;28;20459;-77
2022/11/04 07:58:39;;;;;;;2.70;1.53;;;13.50;99.90;;;;;;4979147;28;20480;-77
2022/11/04 08:01:09;;;;;;;4.37;1.87;;;13.50;99.90;;;;;;4963648;28;20458;-78
2022/11/04 08:03:35;;;;;;;3.80;1.80;;;13.50;99.90;;;;;;4977754;28;20857;-77
2022/11/04 08:06:04;;;;;;;3.63;1.50;;;13.50;99.90;;;;;;4969902;28;20458;-77
2022/11/04 08:08:32;;;;;;;2.30;1.53;;;13.50;99.90;;;;;;4997124;28;20508;-77
2022/11/04 08:11:03;;;;;;;2.77;1.70;;;13.50;99.90;;;;;;4980430;28;20424;-77
2022/11/04 08:13:35;;;;;;;2.57;1.50;;;13.50;99.90;;;;;;5013063;28;20444;-77
2022/11/04 08:16:09;;;;;;;3.67;1.40;;;13.50;99.90;;;;;;4983558;28;20443;-79
2022/11/04 08:18:37;;;;;;;2.50;1.63;;;13.50;99.90;;;;;;5018159;28;20465;-78
2022/11/04 08:21:04;;;;;;;1.93;1.40;;;13.50;99.90;;;;;;4976490;28;20422;-78
2022/11/04 08:23:39;;;;;;;4.67;1.80;;;13.50;99.90;;;;;;5001915;28;20403;-78
2022/11/04 08:26:13;;;;;;;2.60;1.47;;;13.50;99.90;;;;;;4999564;28;20436;-77
2022/11/04 08:28:42;;;;;;;3.60;1.77;;;13.50;99.90;;;;;;4999844;28;20449;-78
2022/11/04 08:31:23;;;;;;;3.30;1.53;;;13.50;99.90;;;;;;4983997;28;20411;-78
2022/11/04 08:33:55;;;;;;;3.60;1.73;;;13.50;99.90;;;;;;5017633;28;20415;-78
2022/11/04 08:36:35;;;;;;;2.37;1.40;;;13.50;99.90;;;;;;5000035;28;20416;-78
2022/11/04 08:39:03;;;;;;;2.43;1.53;;;13.50;99.90;;;;;;4999336;28;20593;-78
2022/11/04 08:41:31;;;;;;;2.10;1.43;;;13.50;99.90;;;;;;4997466;28;20473;-78
2022/11/04 08:43:59;;;;;;;4.23;1.47;;;13.50;99.90;;;;;;4997839;28;20442;-77
2022/11/04 08:46:36;;;;;;;3.80;1.77;;;13.50;99.90;;;;;;4981529;28;20399;-72
2022/11/04 08:49:03;;;;;;;2.00;1.30;;;13.50;99.90;;;;;;4995824;28;20986;-74
2022/11/04 08:51:31;;;;;;;1.90;1.50;;;13.50;99.90;;;;;;4995738;28;20432;-74
2022/11/04 08:54:00;;;;;;;3.73;1.67;;;13.50;99.90;;;;;;4962563;28;20473;-75
2022/11/04 08:56:30;;;;;;;2.10;1.53;;;13.50;99.90;;;;;;4995130;28;20932;-74
2022/11/04 08:58:57;;;;;;;4.37;1.50;;;13.50;99.90;;;;;;4987868;28;21054;-74
2022/11/04 09:01:25;;;;;;;1.90;1.30;;;13.50;99.90;;;;;;4999702;28;20422;-74
2022/11/04 09:03:51;;;;;;;2.73;1.50;;;13.50;99.90;;;;;;4961021;28;20478;-75
2022/11/04 09:06:29;;;;;;;2.70;1.40;;;13.50;99.90;;;;;;4977419;28;20561;-74
2022/11/04 09:09:02;;;;;;;4.33;1.90;;;13.50;99.90;;;;;;4985689;28;20467;-74
2022/11/04 09:11:32;;;;;;;4.17;1.90;;;13.50;99.90;;;;;;5011736;28;20443;-74
2022/11/04 09:14:00;;;;;;;2.20;1.27;;;13.50;99.90;;;;;;5012244;28;20424;-74
2022/11/04 09:16:32;;;;;;;2.43;1.90;;;13.50;99.90;;;;;;4985086;28;20535;-74
2022/11/04 09:19:03;;;;;;;2.30;1.50;;;13.50;99.90;;;;;;5000103;28;20631;-73
2022/11/04 09:21:33;;;;;;;3.93;1.20;;;13.50;99.90;;;;;;4961780;28;20484;-74
2022/11/04 09:23:59;;;;;;;2.37;1.37;;;13.50;99.90;;;;;;4980793;28;20422;-74
2022/11/04 09:26:26;;;;;;;2.17;1.60;;;13.50;99.90;;;;;;4985915;28;20767;-75
2022/11/04 09:28:53;;;;;;;2.50;1.57;;;13.50;99.90;;;;;;4973022;28;20827;-73
2022/11/04 09:31:20;;;;;;;5.47;1.80;;;13.50;99.90;;;;;;4964783;28;20434;-74
2022/11/04 09:33:46;;;;;;;2.50;1.70;;;13.50;99.90;;;;;;4994245;28;21001;-74
2022/11/04 09:36:13;;;;;;;1.77;1.40;;;13.50;99.90;;;;;;4996156;28;20492;-74
2022/11/04 09:38:40;;;;;;;2.90;1.60;;;13.50;99.90;;;;;;4987293;28;20472;-74
2022/11/04 09:41:50;;;;;;;3.00;1.60;;;13.50;99.90;;;;;;4975817;28;20444;-74
2022/11/04 09:44:38;;;;;;;1.73;1.43;;;13.50;99.90;;;;;;4980383;28;20519;-74
2022/11/04 09:47:10;;;;;;;7.10;1.90;;;13.50;99.90;;;;;;4988189;28;20432;-74
2022/11/04 09:49:44;;;;;;;2.63;1.30;;;13.50;99.90;;;;;;5007676;28;20580;-74
2022/11/04 09:52:37;;;;;;;2.73;1.47;;;13.50;99.90;;;;;;4989664;28;20439;-74
2022/11/04 09:55:21;;;;;;;4.70;1.53;;;13.50;99.90;;;;;;4979022;28;20438;-74
2022/11/04 09:57:55;;;;;;;2.83;1.70;;;13.50;99.90;;;;;;4988598;28;20450;-74
2022/11/04 10:00:24;;;;;;;4.43;1.90;;;13.50;99.90;;;;;;5010356;28;20776;-74
2022/11/04 10:03:43;;;;;;;3.97;1.60;;;13.50;99.90;;;;;;4986423;28;20819;-74
2022/11/04 10:06:27;;;;;;;4.50;1.73;;;13.50;99.90;;;;;;4964840;28;20427;-74
2022/11/04 10:09:04;;;;;;;2.17;1.60;;;13.50;99.90;;;;;;4979297;28;20498;-74
2022/11/04 10:11:47;;;;;;;4.53;2.10;;;13.50;99.90;;;;;;4996406;28;21054;-74
2022/11/04 10:14:37;;;;;;;2.90;1.60;;;13.50;99.90;;;;;;4975052;28;20953;-73
2022/11/04 10:17:21;;;;;;;6.40;1.43;;;13.50;99.90;;;;;;5001211;28;20932;-72
2022/11/04 10:20:02;;;;;;;4.50;1.50;;;13.50;99.90;;;;;;5012960;28;20517;-73
2022/11/04 10:22:40;;;;;;;2.30;1.17;;;13.60;99.90;;;;;;4996294;28;20427;-74
2022/11/04 10:25:21;;;;;;;5.50;1.70;;;13.60;99.90;;;;;;4978973;28;20767;-73
2022/11/04 10:27:51;;;;;;;3.20;1.50;;;13.60;99.90;;;;;;4977600;28;20443;-72
2022/11/04 10:30:23;;;;;;;3.07;1.57;;;13.60;99.90;;;;;;4995395;28;21048;-72
2022/11/04 10:33:41;;;;;;;2.87;1.30;;;13.60;99.90;;;;;;4933405;29;20449;-74
2022/11/04 10:36:09;;;;;;;2.67;1.60;;;13.60;99.90;;;;;;4932654;29;20859;-74
2022/11/04 10:38:43;;;;;;;2.83;1.40;;;13.60;99.90;;;;;;4933017;29;21086;-73
2022/11/04 10:41:23;;;;;;;3.17;1.60;;;13.60;99.90;;;;;;4932495;29;20414;-73
2022/11/04 10:44:07;;;;;;;3.93;1.10;;;13.60;99.90;;;;;;4938043;29;20475;-73
2022/11/04 10:46:39;;;;;;;2.67;1.60;;;13.60;99.90;;;;;;4931710;29;20453;-73
2022/11/04 10:49:25;;;;;;;3.30;1.23;;;13.60;99.90;;;;;;4939211;29;20463;-73
2022/11/04 10:51:53;;;;;;;1.90;1.40;;;13.60;99.90;;;;;;4922730;29;20567;-73
2022/11/04 10:54:19;;;;;;;1.77;1.40;;;13.60;99.90;;;;;;4919307;29;20460;-72
2022/11/04 10:56:53;;;;;;;6.90;1.50;;;13.60;99.90;;;;;;4899981;29;20472;-73
2022/11/04 10:59:53;;;;;;;3.03;1.50;;;13.60;99.90;;;;;;4951697;28;21034;-73
2022/11/04 11:02:36;;;;;;;2.10;1.33;;;13.50;99.90;;;;;;4992651;28;20515;-73
2022/11/04 11:05:21;;;;;;;3.17;1.80;;;13.50;99.90;;;;;;4993960;28;20793;-74
2022/11/04 11:07:56;;;;;;;2.47;1.83;;;13.50;99.90;;;;;;4988878;28;20510;-73
2022/11/04 11:10:26;;;;;;;4.10;1.97;;;13.50;99.90;;;;;;4990034;28;20497;-73
2022/11/04 11:13:03;;;;;;;3.47;1.77;;;13.50;99.90;;;;;;5006184;28;20924;-73
2022/11/04 11:15:32;;;;;;;3.67;1.83;;;13.50;99.90;;;;;;4968019;28;20526;-73
2022/11/04 11:18:07;;;;;;;4.03;1.40;;;13.50;99.90;;;;;;5009314;28;20779;-77
2022/11/04 11:20:36;;;;;;;3.73;1.87;;;13.50;99.90;;;;;;4976175;28;20512;-74
2022/11/04 11:23:08;;;;;;;3.30;1.70;;;13.50;99.90;;;;;;4976952;28;20838;-76
2022/11/04 11:25:45;;;;;;;4.07;1.50;;;13.50;99.90;;;;;;5010737;28;20969;-76
2022/11/04 11:28:20;;;;;;;3.73;1.30;;;13.50;99.90;;;;;;4991935;28;20462;-76
2022/11/04 11:30:46;;;;;;;1.87;1.37;;;13.50;99.90;;;;;;4992577;28;20440;-77
2022/11/04 11:33:28;;;;;;;3.43;1.60;;;13.50;99.90;;;;;;4976457;28;20526;-75
2022/11/04 11:36:01;;;;;;;7.83;2.00;;;13.50;99.90;;;;;;5008497;28;21639;-75
2022/11/04 11:38:32;;;;;;;2.30;1.50;;;13.50;99.90;;;;;;4990452;28;20474;-76
2022/11/04 11:41:11;;;;;;;3.00;1.60;;;13.50;99.90;;;;;;4982750;28;20821;-76
2022/11/04 11:43:41;;;;;;;2.20;1.60;;;13.50;99.90;;;;;;4989007;28;20451;-74
2022/11/04 11:46:08;;;;;;;4.77;2.07;;;13.50;99.90;;;;;;5011544;28;20408;-74
2022/11/04 11:48:39;;;;;;;3.90;1.70;;;13.50;99.90;;;;;;4979859;28;20449;-75
2022/11/04 11:51:06;;;;;;;3.50;1.70;;;13.50;99.90;;;;;;4981267;28;20909;-76
2022/11/04 11:53:37;;;;;;;4.33;1.40;;;13.50;99.90;;;;;;4974960;28;20873;-77
2022/11/04 11:56:12;;;;;;;2.97;1.40;;;13.50;99.90;;;;;;4992354;28;20464;-77
2022/11/04 11:58:54;;;;;;;2.87;1.70;;;13.50;99.90;;;;;;4990777;28;20823;-77
2022/11/04 12:01:33;;;;;;;3.90;1.47;;;13.50;99.90;;;;;;4992555;28;20428;-76
2022/11/04 12:04:02;;;;;;;4.00;1.53;;;13.50;99.90;;;;;;5005276;28;20480;-77
2022/11/04 12:06:41;;;;;;;2.80;2.13;;;13.50;99.90;;;;;;5001533;28;20819;-76
2022/11/04 12:09:17;;;;;;;3.63;1.77;;;13.50;99.90;;;;;;4977087;28;20457;-77
2022/11/04 12:12:05;;;;;;;3.23;1.50;;;13.50;99.90;;;;;;5013380;28;20435;-76
2022/11/04 12:14:31;;;;;;;3.80;1.50;;;13.50;99.90;;;;;;4982912;28;20491;-77
2022/11/04 12:17:20;;;;;;;3.07;1.80;;;13.50;99.90;;;;;;4995970;28;20937;-77
2022/11/04 12:20:17;;;;;;;2.17;1.50;;;13.50;99.90;;;;;;4965466;28;21073;-77
2022/11/04 12:22:50;;;;;;;2.97;1.93;;;13.50;99.90;;;;;;5002048;28;20481;-74
2022/11/04 12:26:31;;;;;;;2.87;1.43;;;13.50;99.90;;;;;;4963799;28;20435;-75
2022/11/04 12:29:06;;;;;;;1.60;1.40;;;13.50;99.90;;;;;;4999697;28;20497;-74
2022/11/04 12:32:04;;;;;;;2.53;1.63;;;13.50;99.90;;;;;;4977439;28;20461;-74
2022/11/04 12:35:08;;;;;;;3.87;1.57;;;13.50;99.90;;;;;;4992043;28;20444;-75
2022/11/04 12:37:53;;;;;;;2.00;1.40;;;13.50;99.90;;;;;;4983402;28;20430;-75
2022/11/04 12:40:25;;;;;;;2.17;1.50;;;13.50;99.90;;;;;;4961320;28;20460;-75
2022/11/04 12:43:07;;;;;;;2.87;1.50;;;13.50;99.90;;;;;;4977546;28;20418;-74
2022/11/04 12:46:05;;;;;;;2.80;1.60;;;13.50;99.90;;;;;;4977466;28;20441;-75
2022/11/04 12:48:46;;;;;;;3.70;1.43;;;13.50;99.90;;;;;;4961539;28;20443;-73
2022/11/04 12:51:31;;;;;;;2.73;1.57;;;13.60;99.90;;;;;;4995413;28;20429;-73
2022/11/04 12:54:27;;;;;;;3.90;1.77;;;13.60;99.90;;;;;;4962579;28;20437;-74
2022/11/04 12:57:28;;;;;;;3.83;1.53;;;13.60;99.90;;;;;;5005863;28;20502;-74
2022/11/04 13:00:07;;;;;;;3.23;1.80;;;13.60;99.90;;;;;;5007127;28;20544;-73
2022/11/04 13:02:39;;;;;;;3.23;1.53;;;13.60;99.90;;;;;;4996294;28;20437;-75
2022/11/04 13:05:32;;;;;;;3.37;1.90;;;13.60;99.90;;;;;;4965592;28;20462;-75
2022/11/04 13:08:23;;;;;;;4.27;1.77;;;13.60;99.90;;;;;;4978715;28;20400;-76
2022/11/04 13:11:21;;;;;;;5.57;1.87;;;13.60;99.90;;;;;;4996786;28;20415;-76
2022/11/04 13:14:04;;;;;;;5.40;1.90;;;13.60;99.90;;;;;;5007870;28;20514;-77
2022/11/04 13:16:34;;;;;;;2.93;1.83;;;13.60;99.90;;;;;;4960990;28;20961;-76
2022/11/04 13:19:01;;;;;;;2.60;1.60;;;13.60;99.90;;;;;;4969455;28;20475;-77
2022/11/04 13:21:34;;;;;;;5.73;1.97;;;13.60;99.90;;;;;;4996013;28;20416;-76
2022/11/04 13:24:14;;;;;;;4.70;1.87;;;13.60;99.90;;;;;;5011933;28;20452;-76
2022/11/04 13:26:42;;;;;;;3.37;1.60;;;13.60;99.90;;;;;;5003449;28;20454;-74
2022/11/04 13:29:14;;;;;;;4.00;2.00;;;13.60;99.90;;;;;;4981397;28;20519;-74
2022/11/04 13:32:27;;;;;;;4.70;1.80;;;13.60;99.90;;;;;;4960957;28;20413;-74
2022/11/04 13:35:11;;;;;;;3.93;1.60;;;13.70;99.90;;;;;;4974978;28;20450;-73
2022/11/04 13:37:47;;;;;;;2.93;1.67;;;13.70;99.90;;;;;;4961706;28;20416;-73
2022/11/04 13:40:18;;;;;;;2.17;1.40;;;13.60;99.90;;;;;;4977011;28;20450;-74
2022/11/04 13:43:38;;;;;;;4.53;1.80;;;13.70;99.90;;;;;;4961311;28;20429;-73
2022/11/04 13:46:29;;;;;;;2.93;1.80;;;13.70;99.90;;;;;;4979387;28;21007;-72
2022/11/04 13:48:59;;;;;;;2.90;1.53;;;13.70;99.90;;;;;;4961350;28;20466;-72
2022/11/04 13:51:37;;;;;;;3.30;1.80;;;13.70;99.90;;;;;;4994521;28;20510;-74
2022/11/04 13:54:12;;;;;;;2.30;1.70;;;13.70;99.90;;;;;;4976874;28;20478;-75
2022/11/04 13:56:43;;;;;;;3.83;1.77;;;13.70;99.90;;;;;;4993809;28;20515;-75